Time;durP1;ratioP1;P1;durP2;ratioP2;P2;SDS_P1;SDS_P2;PMS_P1;PMS_P2;Temp;Humidity;BMP_temperature;BMP_pressure;BME280_temperature;BME280_humidity;BME280_pressure;Samples;Min_cycle;Max_cycle;Signal;HPM_P1;HPM_P2
2022/07/21 00:02:07;;;;;;;2.17;1.40;;;;;;;21.40;36.92;94138.53;4992544;28;20088;-79
2022/07/21 00:04:34;;;;;;;3.40;1.25;;;;;;;21.20;36.92;94106.66;4992738;28;20021;-79
2022/07/21 00:06:59;;;;;;;1.63;1.52;;;;;;;21.55;37.25;94160.34;4999215;28;20026;-79
2022/07/21 00:09:25;;;;;;;3.17;1.33;;;;;;;21.30;37.62;94128.41;4997988;28;20057;-80
2022/07/21 00:11:50;;;;;;;2.90;1.73;;;;;;;21.22;38.09;94126.78;4994608;28;20136;-80
2022/07/21 00:14:15;;;;;;;2.30;1.70;;;;;;;21.12;38.13;94115.88;4997786;28;20153;-79
2022/07/21 00:16:42;;;;;;;2.33;1.52;;;;;;;21.30;38.38;94151.97;4996250;28;20029;-79
2022/07/21 00:19:08;;;;;;;3.63;1.88;;;;;;;21.27;38.65;94158.88;4999881;28;20617;-80
2022/07/21 00:21:34;;;;;;;2.60;1.67;;;;;;;21.29;38.49;94159.31;4998568;28;20022;-78
2022/07/21 00:23:59;;;;;;;2.55;1.80;;;;;;;21.20;38.28;94145.31;4995495;28;20040;-78
2022/07/21 00:26:25;;;;;;;3.15;1.55;;;;;;;21.14;38.33;94138.69;4993896;28;20597;-79
2022/07/21 00:28:50;;;;;;;2.08;1.40;;;;;;;21.18;38.41;94158.41;4991220;28;20034;-78
2022/07/21 00:31:16;;;;;;;1.67;1.45;;;;;;;21.13;38.07;94145.22;4993791;28;20045;-80
2022/07/21 00:33:41;;;;;;;2.72;1.35;;;;;;;21.07;38.04;94138.59;4996744;28;20022;-79
2022/07/21 00:36:07;;;;;;;2.22;1.38;;;;;;;21.09;38.22;94155.25;4995026;28;20064;-79
2022/07/21 00:38:32;;;;;;;3.88;1.60;;;;;;;20.84;38.67;94127.91;4992877;28;20022;-79
2022/07/21 00:40:58;;;;;;;2.30;1.80;;;;;;;21.00;38.90;94154.75;4996018;28;20113;-79
2022/07/21 00:43:23;;;;;;;1.70;1.40;;;;;;;20.83;38.84;94139.88;4994545;28;20042;-79
2022/07/21 00:45:52;;;;;;;1.95;1.40;;;;;;;20.77;39.00;94143.28;4994136;28;20048;-79
2022/07/21 00:48:18;;;;;;;2.03;1.40;;;;;;;20.89;38.87;94161.97;4994205;28;20257;-79
2022/07/21 00:50:43;;;;;;;1.40;1.30;;;;;;;20.76;39.22;94147.13;4995855;28;20034;-78
2022/07/21 00:53:09;;;;;;;2.03;1.42;;;;;;;20.72;39.34;94151.72;4995718;28;20026;-79
2022/07/21 00:55:34;;;;;;;2.80;1.63;;;;;;;20.73;39.71;94156.00;5010112;28;20482;-76
2022/07/21 00:58:00;;;;;;;2.97;1.75;;;;;;;20.53;39.17;94129.09;4990376;28;20029;-79
2022/07/21 01:00:28;;;;;;;2.00;1.80;;;;;;;20.74;39.56;94162.94;4993017;28;20026;-80
2022/07/21 01:02:54;;;;;;;1.25;1.15;;;;;;;20.69;39.45;94157.84;4997746;28;20064;-80
2022/07/21 01:05:20;;;;;;;1.63;1.23;;;;;;;20.62;39.26;94163.19;4994332;28;20323;-79
2022/07/21 01:07:48;;;;;;;3.38;1.70;;;;;;;20.67;39.14;94152.84;4993956;28;20084;-79
2022/07/21 01:10:15;;;;;;;2.00;1.20;;;;;;;20.58;39.30;94128.78;4992175;28;20041;-80
2022/07/21 01:12:41;;;;;;;2.05;1.70;;;;;;;20.71;38.93;94147.47;4990781;28;20045;-79
2022/07/21 01:15:08;;;;;;;6.68;1.50;;;;;;;20.74;39.00;94144.00;4993313;28;20033;-79
2022/07/21 01:17:34;;;;;;;4.05;1.50;;;;;;;20.51;39.05;94117.91;4990407;28;20041;-80
2022/07/21 01:20:14;;;;;;;2.20;1.42;;;;;;;20.58;38.65;94120.69;4992266;28;20407;-81
2022/07/21 01:22:42;;;;;;;2.42;1.80;;;;;;;20.39;38.72;94099.22;4995758;28;20241;-79
2022/07/21 01:25:08;;;;;;;2.70;1.60;;;;;;;20.57;38.84;94116.44;4999212;28;20116;-79
2022/07/21 01:27:34;;;;;;;2.33;1.42;;;;;;;20.53;39.46;94129.09;4997258;28;20478;-80
2022/07/21 01:30:00;;;;;;;1.58;1.33;;;;;;;20.42;39.41;94122.81;5000377;28;20038;-79
2022/07/21 01:32:26;;;;;;;1.80;1.48;;;;;;;20.29;39.43;94121.47;4999743;28;20528;-79
2022/07/21 01:34:52;;;;;;;1.65;1.50;;;;;;;20.26;39.12;94114.13;4996502;28;20045;-79
2022/07/21 01:37:23;;;;;;;1.63;1.50;;;;;;;20.44;39.08;94128.63;5003592;28;20466;-78
2022/07/21 01:42:34;;;;;;;1.88;1.63;;;;;;;20.45;39.26;94122.06;4999385;28;20036;-79
2022/07/21 01:45:00;;;;;;;2.40;1.73;;;;;;;20.33;39.45;94108.81;4996425;28;20022;-79
2022/07/21 01:47:25;;;;;;;1.40;1.30;;;;;;;20.27;39.36;94099.47;4996411;28;20030;-79
2022/07/21 01:49:51;;;;;;;2.58;1.58;;;;;;;20.21;39.54;94100.16;4997650;28;20768;-79
2022/07/21 01:52:16;;;;;;;2.75;1.52;;;;;;;20.31;39.41;94121.91;4999865;28;20473;-78
2022/07/21 01:54:42;;;;;;;2.45;1.23;;;;;;;20.15;39.46;94102.38;4994831;28;20421;-78
2022/07/21 01:57:07;;;;;;;2.88;1.77;;;;;;;20.21;39.92;94117.13;4994482;28;20018;-79
2022/07/21 01:59:32;;;;;;;3.65;1.67;;;;;;;20.19;40.21;94127.50;4996975;28;20022;-79
2022/07/21 02:01:58;;;;;;;3.83;2.60;;;;;;;20.10;40.39;94126.97;5003680;28;20026;-78
2022/07/21 02:04:23;;;;;;;3.80;1.70;;;;;;;20.06;40.86;94126.16;4996939;28;20093;-80
2022/07/21 02:06:49;;;;;;;3.15;1.90;;;;;;;19.54;40.98;94052.19;4995072;28;20061;-80
2022/07/21 02:09:14;;;;;;;3.15;2.10;;;;;;;20.02;40.99;94128.03;4996717;28;20041;-79
2022/07/21 02:11:40;;;;;;;4.05;2.13;;;;;;;19.98;40.89;94114.50;4996550;28;20034;-79
2022/07/21 02:14:05;;;;;;;2.92;1.77;;;;;;;20.07;40.86;94125.03;4996697;28;20501;-76
2022/07/21 02:16:31;;;;;;;2.80;2.22;;;;;;;19.90;40.74;94106.66;4995674;28;20026;-80
2022/07/21 02:18:56;;;;;;;2.17;1.98;;;;;;;20.12;40.26;94130.09;4994919;28;20014;-80
2022/07/21 02:21:22;;;;;;;2.45;1.73;;;;;;;19.72;40.53;94080.19;4994700;28;20416;-79
2022/07/21 02:23:47;;;;;;;3.80;1.77;;;;;;;20.06;40.50;94126.16;4996696;28;20042;-79
2022/07/21 02:26:13;;;;;;;1.73;1.38;;;;;;;20.01;40.32;94107.56;4997653;28;20052;-80
2022/07/21 02:28:39;;;;;;;4.82;1.65;;;;;;;20.01;40.60;94118.38;5004212;28;20026;-79
2022/07/21 02:31:05;;;;;;;2.95;1.75;;;;;;;20.08;40.52;94129.28;4997323;28;20030;-79
2022/07/21 02:33:30;;;;;;;2.53;1.60;;;;;;;20.04;40.60;94115.72;4998027;28;20117;-80
2022/07/21 02:35:56;;;;;;;2.95;1.67;;;;;;;20.07;40.28;94112.31;4998269;28;20773;-79
2022/07/21 02:38:21;;;;;;;3.72;2.30;;;;;;;20.00;40.20;94101.41;4997685;28;20080;-80
2022/07/21 02:40:47;;;;;;;2.92;2.10;;;;;;;20.00;40.21;94101.41;4997134;28;20022;-80
2022/07/21 02:43:12;;;;;;;3.30;2.10;;;;;;;20.01;40.20;94107.56;4995501;28;20033;-79
2022/07/21 02:45:39;;;;;;;1.98;1.58;;;;;;;19.83;40.23;94088.44;4996255;28;20750;-78
2022/07/21 02:48:06;;;;;;;3.45;2.15;;;;;;;20.02;40.39;94117.25;4998545;28;20598;-79
2022/07/21 02:50:34;;;;;;;6.90;2.22;;;;;;;19.93;40.55;94114.81;4995503;28;20103;-78
2022/07/21 02:53:02;;;;;;;2.30;1.98;;;;;;;19.77;41.00;94099.91;4992684;28;20018;-79
2022/07/21 02:55:28;;;;;;;3.63;2.08;;;;;;;19.84;41.14;94117.00;4992067;28;20024;-78
2022/07/21 02:58:06;;;;;;;3.08;1.80;;;;;;;19.78;41.39;94113.06;4993022;28;20022;-78
2022/07/21 03:00:33;;;;;;;4.63;1.73;;;;;;;19.66;41.50;94107.84;4998803;28;20029;-79
2022/07/21 03:02:58;;;;;;;3.03;1.83;;;;;;;19.59;42.03;94119.34;5001135;28;20553;-79
2022/07/21 03:05:24;;;;;;;4.13;1.92;;;;;;;19.57;42.08;94116.22;5001132;28;20090;-78
2022/07/21 03:07:49;;;;;;;2.70;2.10;;;;;;;19.49;42.46;94113.78;4999078;28;20026;-79
2022/07/21 03:10:14;;;;;;;3.00;1.92;;;;;;;19.49;42.46;94124.56;4995072;28;20026;-79
2022/07/21 03:12:40;;;;;;;2.20;1.77;;;;;;;19.48;42.51;94121.06;4994678;28;20030;-78
2022/07/21 03:15:06;;;;;;;4.13;1.92;;;;;;;19.25;42.64;94096.03;4996968;28;21074;-79
2022/07/21 03:17:31;;;;;;;3.20;2.28;;;;;;;19.44;42.73;94114.81;4996430;28;20309;-80
2022/07/21 03:19:56;;;;;;;2.90;2.33;;;;;;;19.37;42.44;94109.31;4994549;28;20498;-78
2022/07/21 03:22:22;;;;;;;3.92;2.20;;;;;;;19.29;42.42;94094.94;4998613;28;20136;-79
2022/07/21 03:24:50;;;;;;;4.25;2.00;;;;;;;19.44;42.65;94131.00;4992937;28;20506;-79
2022/07/21 03:27:16;;;;;;;4.18;2.08;;;;;;;19.33;42.51;94111.16;4995351;28;20561;-79
2022/07/21 03:29:41;;;;;;;4.47;2.53;;;;;;;19.38;42.93;94135.13;4995558;28;20033;-80
2022/07/21 03:32:07;;;;;;;3.47;1.77;;;;;;;19.21;43.03;94111.38;4997144;28;20382;-79
2022/07/21 03:34:32;;;;;;;4.40;2.10;;;;;;;19.25;43.28;94112.19;4996112;28;20064;-78
2022/07/21 03:36:57;;;;;;;2.63;1.58;;;;;;;19.39;43.38;94141.31;4993432;28;20117;-79
2022/07/21 03:39:23;;;;;;;2.97;1.85;;;;;;;19.41;43.23;94128.25;4997801;28;20030;-79
2022/07/21 03:41:48;;;;;;;2.78;1.70;;;;;;;19.34;43.47;94126.22;4997247;28;20018;-79
2022/07/21 03:44:14;;;;;;;2.30;2.03;;;;;;;19.31;43.38;94116.16;4993003;28;20029;-79
2022/07/21 03:46:39;;;;;;;2.33;1.85;;;;;;;19.41;43.11;94112.81;4997103;28;20018;-80
2022/07/21 03:49:04;;;;;;;3.97;1.80;;;;;;;19.48;43.24;94131.88;4992916;28;20026;-79
2022/07/21 03:51:30;;;;;;;2.55;1.90;;;;;;;19.34;43.38;94096.56;4995244;28;20027;-80
2022/07/21 03:53:55;;;;;;;2.30;1.80;;;;;;;19.53;43.20;94115.38;4989055;28;20018;-79
2022/07/21 03:56:20;;;;;;;2.15;1.95;;;;;;;19.57;43.84;94116.22;5006898;28;20041;-80
2022/07/21 03:58:46;;;;;;;2.17;1.75;;;;;;;19.64;44.15;94118.25;4995119;28;20485;-78
2022/07/21 04:01:11;;;;;;;3.47;2.30;;;;;;;19.84;44.03;94137.81;4995565;28;20022;-78
2022/07/21 04:03:37;;;;;;;4.35;2.15;;;;;;;19.82;43.74;94132.00;4993369;28;20026;-79
2022/07/21 04:06:02;;;;;;;3.60;1.90;;;;;;;19.84;43.78;94121.63;5009535;28;20645;-77
2022/07/21 04:08:28;;;;;;;3.22;2.33;;;;;;;20.03;44.11;94143.88;4991641;28;20057;-79
2022/07/21 04:10:53;;;;;;;2.75;2.42;;;;;;;19.95;43.68;94127.94;4994945;28;20030;-78
2022/07/21 04:13:19;;;;;;;4.20;2.55;;;;;;;20.09;42.79;94138.94;4993969;28;20063;-78
2022/07/21 04:15:44;;;;;;;5.53;2.95;;;;;;;20.03;42.51;94111.47;4995932;28;20053;-78
2022/07/21 04:18:10;;;;;;;4.55;2.53;;;;;;;20.14;42.58;94123.19;4989702;28;20026;-74
2022/07/21 04:20:36;;;;;;;8.75;2.80;;;;;;;20.34;41.99;94131.19;4990664;28;20028;-75
2022/07/21 04:23:02;;;;;;;5.22;2.40;;;;;;;20.01;41.29;94085.97;4990291;28;20129;-74
2022/07/21 04:25:29;;;;;;;3.03;2.70;;;;;;;20.36;41.65;94140.47;4989250;28;20030;-75
2022/07/21 04:27:54;;;;;;;5.55;2.63;;;;;;;20.27;42.19;94137.28;4986240;28;20033;-74
2022/07/21 04:30:22;;;;;;;5.43;3.15;;;;;;;20.25;41.81;94128.75;4988400;28;20130;-75
2022/07/21 04:32:48;;;;;;;3.65;3.17;;;;;;;20.04;42.40;94131.16;5003666;28;20459;-75
2022/07/21 04:35:13;;;;;;;22.13;4.13;;;;;;;19.79;42.98;94136.19;4988061;28;20250;-75
2022/07/21 04:37:39;;;;;;;8.95;3.72;;;;;;;20.08;42.81;94130.06;4987119;28;20114;-75
2022/07/21 04:40:07;;;;;;;4.88;3.15;;;;;;;20.30;43.11;94141.16;4993708;28;20535;-74
2022/07/21 04:42:33;;;;;;;3.47;2.85;;;;;;;20.33;42.25;94126.94;4987059;28;20029;-74
2022/07/21 04:44:58;;;;;;;7.18;3.80;;;;;;;20.55;41.84;94137.63;4993081;28;20614;-75
2022/07/21 04:47:24;;;;;;;5.25;3.10;;;;;;;20.54;41.52;94130.66;4987043;28;20447;-75
2022/07/21 04:49:49;;;;;;;3.45;3.15;;;;;;;20.74;41.21;94150.19;4988274;28;20061;-75
2022/07/21 04:52:15;;;;;;;9.10;3.05;;;;;;;20.88;41.04;94153.09;4986886;28;20038;-75
2022/07/21 04:54:40;;;;;;;4.80;3.50;;;;;;;20.78;41.63;94136.72;4988523;28;20025;-74
2022/07/21 04:57:06;;;;;;;6.47;3.70;;;;;;;21.01;40.96;94145.50;4989116;28;20491;-75
2022/07/21 04:59:32;;;;;;;7.82;3.83;;;;;;;21.15;40.39;94156.47;4990599;28;20803;-75
2022/07/21 05:01:58;;;;;;;5.78;3.58;;;;;;;20.99;40.88;94155.91;4991386;28;20136;-75
2022/07/21 05:04:24;;;;;;;4.80;3.90;;;;;;;20.66;40.99;94155.91;4991982;28;20037;-75
2022/07/21 05:06:50;;;;;;;5.80;3.35;;;;;;;20.45;41.72;94146.38;4991292;28;20026;-75
2022/07/21 05:09:15;;;;;;;4.45;4.05;;;;;;;20.79;41.23;94162.59;4988994;28;20045;-74
2022/07/21 05:11:41;;;;;;;6.15;4.55;;;;;;;20.82;41.49;94138.34;4988069;28;20033;-75
2022/07/21 05:14:06;;;;;;;5.85;4.60;;;;;;;20.85;41.50;94156.50;4989337;28;20033;-76
2022/07/21 05:16:31;;;;;;;6.40;4.25;;;;;;;20.86;41.61;94151.88;4992679;28;20029;-75
2022/07/21 05:18:57;;;;;;;5.05;4.50;;;;;;;20.90;41.32;94131.88;4994704;28;20025;-74
2022/07/21 05:21:22;;;;;;;9.18;4.32;;;;;;;20.98;40.97;94121.91;4992176;28;20053;-75
2022/07/21 05:23:48;;;;;;;8.18;4.10;;;;;;;21.23;41.06;94132.97;4993734;28;20072;-75
2022/07/21 05:26:13;;;;;;;5.85;4.22;;;;;;;21.23;41.01;94133.75;5006863;28;20029;-75
2022/07/21 05:28:40;;;;;;;5.65;4.03;;;;;;;21.42;40.53;94124.63;4993629;28;20030;-75
2022/07/21 05:31:05;;;;;;;6.47;4.90;;;;;;;21.74;40.45;94162.81;4991939;28;20084;-75
2022/07/21 05:33:31;;;;;;;7.72;5.05;;;;;;;21.17;40.50;94134.47;4989228;28;20128;-74
2022/07/21 05:35:56;;;;;;;7.28;4.47;;;;;;;21.05;40.74;94161.75;4986712;28;20475;-74
2022/07/21 05:38:22;;;;;;;7.15;4.72;;;;;;;21.07;41.07;94154.81;4988040;28;20030;-75
2022/07/21 05:40:47;;;;;;;8.63;5.18;;;;;;;21.16;41.27;94165.38;4987202;28;20021;-76
2022/07/21 05:43:13;;;;;;;10.63;4.78;;;;;;;21.35;40.69;94136.19;4991187;28;20034;-76
2022/07/21 05:45:38;;;;;;;6.65;4.80;;;;;;;21.52;40.09;94152.94;4990437;28;20041;-75
2022/07/21 05:48:04;;;;;;;7.43;4.25;;;;;;;21.19;40.66;94140.28;4991134;28;20033;-75
2022/07/21 05:50:29;;;;;;;10.43;4.60;;;;;;;21.57;40.57;94158.03;4989413;28;20485;-75
2022/07/21 05:52:55;;;;;;;9.63;4.68;;;;;;;21.83;39.83;94163.28;4990520;28;20025;-74
2022/07/21 05:55:20;;;;;;;5.03;3.97;;;;;;;21.63;40.90;94160.03;4989995;28;20423;-74
2022/07/21 05:57:46;;;;;;;6.05;3.83;;;;;;;21.86;40.49;94162.50;4990366;28;20029;-75
2022/07/21 06:00:12;;;;;;;4.15;3.60;;;;;;;22.00;40.36;94142.91;4987368;28;20040;-74
2022/07/21 06:02:37;;;;;;;11.80;5.03;;;;;;;21.95;40.58;94138.59;5001473;28;20021;-75
2022/07/21 06:05:03;;;;;;;6.32;4.57;;;;;;;21.97;39.79;94128.16;4988468;28;20026;-74
2022/07/21 06:07:28;;;;;;;9.48;5.82;;;;;;;22.20;39.66;94152.28;4992210;28;20369;-75
2022/07/21 06:09:54;;;;;;;7.95;4.97;;;;;;;22.42;39.80;94151.28;4983836;28;20042;-75
2022/07/21 06:12:19;;;;;;;9.30;4.88;;;;;;;22.38;39.11;94136.94;4986399;28;20562;-75
2022/07/21 06:14:44;;;;;;;5.43;3.83;;;;;;;22.71;39.63;94150.25;4986835;28;20037;-74
2022/07/21 06:17:10;;;;;;;14.77;4.22;;;;;;;22.47;40.01;94145.50;4986463;28;20080;-75
2022/07/21 06:19:35;;;;;;;12.52;5.25;;;;;;;22.10;39.55;94137.53;4986941;28;20032;-74
2022/07/21 06:22:02;;;;;;;7.50;4.32;;;;;;;22.18;39.30;94151.91;4987726;28;20018;-75
2022/07/21 06:24:29;;;;;;;5.15;4.15;;;;;;;21.99;40.02;94112.31;5001423;28;20033;-75
2022/07/21 06:26:55;;;;;;;10.52;4.80;;;;;;;22.56;40.17;94142.44;4986553;28;20025;-74
2022/07/21 06:29:24;;;;;;;5.05;3.75;;;;;;;22.70;39.83;94153.34;4987462;28;20034;-75
2022/07/21 06:31:50;;;;;;;7.00;3.97;;;;;;;22.80;39.66;94147.19;4985779;28;20426;-74
2022/07/21 06:34:15;;;;;;;6.03;3.90;;;;;;;23.09;39.92;94148.84;4983784;28;20360;-75
2022/07/21 06:36:41;;;;;;;11.32;3.33;;;;;;;22.86;39.45;94086.03;4982353;28;20392;-75
2022/07/21 06:39:06;;;;;;;6.75;3.45;;;;;;;23.34;38.50;94126.41;4981282;28;20486;-75
2022/07/21 06:41:32;;;;;;;6.28;3.38;;;;;;;23.15;38.09;94141.88;4988094;28;20638;-75
2022/07/21 06:43:58;;;;;;;5.03;3.30;;;;;;;23.35;38.57;94145.00;4982052;28;20559;-75
2022/07/21 06:46:23;;;;;;;12.02;4.13;;;;;;;23.44;38.02;94142.69;4986263;28;20596;-75
2022/07/21 06:48:49;;;;;;;4.32;3.42;;;;;;;23.74;38.11;94144.28;4999940;28;20069;-76
2022/07/21 06:51:14;;;;;;;11.93;3.85;;;;;;;23.92;37.28;94143.09;4989308;28;20486;-74
2022/07/21 06:53:42;;;;;;;8.18;3.45;;;;;;;24.12;37.09;94132.63;4994147;28;20072;-74
2022/07/21 06:56:07;;;;;;;7.80;3.42;;;;;;;24.13;36.63;94138.84;4989906;28;20518;-75
2022/07/21 06:58:32;;;;;;;5.07;3.58;;;;;;;24.12;36.38;94127.19;4989889;28;20030;-77
2022/07/21 07:00:58;;;;;;;4.22;3.05;;;;;;;24.00;37.49;94109.31;4990181;28;20506;-75
2022/07/21 07:03:24;;;;;;;7.30;3.45;;;;;;;24.10;37.49;94107.75;4991271;28;20032;-75
2022/07/21 07:05:49;;;;;;;6.75;3.10;;;;;;;24.36;36.53;94114.69;4988980;28;20024;-75
2022/07/21 07:08:15;;;;;;;12.20;3.45;;;;;;;24.59;36.24;94128.59;4989630;28;20406;-77
2022/07/21 07:10:41;;;;;;;7.20;3.78;;;;;;;24.72;35.77;94132.47;4992521;28;20030;-76
2022/07/21 07:13:08;;;;;;;4.90;2.95;;;;;;;24.55;35.35;94114.25;4989751;28;20019;-77
2022/07/21 07:15:33;;;;;;;2.70;2.22;;;;;;;24.25;34.95;94113.94;4990088;28;20628;-76
2022/07/21 07:17:59;;;;;;;4.45;2.33;;;;;;;23.77;36.34;94108.97;4991525;28;20021;-76
2022/07/21 07:20:24;;;;;;;12.25;3.30;;;;;;;23.87;37.32;94138.06;4989623;28;20029;-76
2022/07/21 07:22:50;;;;;;;2.78;2.20;;;;;;;24.21;36.75;94124.06;4989080;28;20025;-76
2022/07/21 07:25:19;;;;;;;3.20;2.30;;;;;;;24.16;36.68;94127.16;4991986;28;20084;-76
2022/07/21 07:27:46;;;;;;;3.95;2.67;;;;;;;24.33;36.58;94115.50;4988109;28;20032;-76
2022/07/21 07:30:12;;;;;;;3.20;2.60;;;;;;;23.95;36.42;94127.97;4991316;28;20176;-75
2022/07/21 07:32:39;;;;;;;6.03;2.53;;;;;;;23.80;37.57;94127.22;4990372;28;20034;-76
2022/07/21 07:35:06;;;;;;;4.88;3.10;;;;;;;24.03;38.42;94113.22;4990053;28;20023;-76
2022/07/21 07:37:36;;;;;;;3.28;2.10;;;;;;;24.02;37.59;94117.09;4986969;28;20037;-76
2022/07/21 07:40:05;;;;;;;3.22;1.95;;;;;;;23.57;37.72;94097.72;4983347;28;20048;-75
2022/07/21 07:42:31;;;;;;;2.55;1.70;;;;;;;23.95;36.83;94108.97;4984011;28;20032;-76
2022/07/21 07:44:56;;;;;;;3.08;2.70;;;;;;;23.89;36.16;94118.66;4984403;28;20037;-77
2022/07/21 07:47:21;;;;;;;2.72;2.25;;;;;;;23.78;36.08;94094.22;4989132;28;20368;-76
2022/07/21 07:49:49;;;;;;;5.03;1.95;;;;;;;23.70;36.41;94089.97;4987368;28;20044;-76
2022/07/21 07:52:14;;;;;;;3.35;2.00;;;;;;;23.84;36.17;94108.97;4980919;28;20053;-75
2022/07/21 07:54:40;;;;;;;3.97;2.55;;;;;;;23.75;36.79;94103.16;4988120;28;20034;-76
2022/07/21 07:57:05;;;;;;;5.57;1.90;;;;;;;23.87;36.42;94104.69;4987782;28;20105;-76
2022/07/21 07:59:30;;;;;;;2.25;2.00;;;;;;;23.85;36.72;94107.81;4988489;28;20085;-77
2022/07/21 08:01:56;;;;;;;4.65;2.55;;;;;;;23.94;36.29;94102.75;4988318;28;20401;-76
2022/07/21 08:04:21;;;;;;;2.78;1.98;;;;;;;23.97;36.03;94099.25;4986392;28;20038;-76
2022/07/21 08:06:46;;;;;;;3.25;2.22;;;;;;;23.70;36.93;94064.75;4983907;28;20480;-76
2022/07/21 08:09:12;;;;;;;5.80;3.38;;;;;;;23.91;37.19;94084.50;4985132;28;20085;-75
2022/07/21 08:11:37;;;;;;;3.25;1.73;;;;;;;23.82;36.45;94070.56;4990098;28;20025;-76
2022/07/21 08:14:03;;;;;;;3.28;2.30;;;;;;;23.85;36.50;94094.22;4987135;28;20379;-76
2022/07/21 08:16:28;;;;;;;5.30;2.38;;;;;;;24.01;36.40;94081.00;4986262;28;20109;-76
2022/07/21 08:18:54;;;;;;;2.70;2.30;;;;;;;23.88;37.06;94073.66;4988206;28;20018;-77
2022/07/21 08:21:19;;;;;;;2.95;1.75;;;;;;;23.93;36.78;94082.19;4988000;28;20022;-75
2022/07/21 08:23:45;;;;;;;2.42;2.00;;;;;;;23.88;35.96;94062.78;4988424;28;20038;-76
2022/07/21 08:26:10;;;;;;;5.18;2.17;;;;;;;23.92;36.07;94069.75;4984444;28;20125;-76
2022/07/21 08:28:35;;;;;;;2.83;1.80;;;;;;;24.09;35.98;94068.19;4984542;28;20485;-75
2022/07/21 08:31:01;;;;;;;2.80;1.90;;;;;;;24.05;35.49;94085.66;4989069;28;20062;-76
2022/07/21 08:33:26;;;;;;;3.22;2.30;;;;;;;24.06;34.98;94089.91;4998163;28;20444;-76
2022/07/21 08:35:53;;;;;;;3.35;1.90;;;;;;;24.11;35.30;94073.19;4988364;28;20036;-76
2022/07/21 08:38:20;;;;;;;2.50;1.90;;;;;;;24.34;35.55;94090.66;4988015;28;20021;-76
2022/07/21 08:40:46;;;;;;;3.03;1.65;;;;;;;24.38;36.43;94055.28;4986538;28;20026;-76
2022/07/21 08:43:14;;;;;;;5.25;2.40;;;;;;;24.77;34.78;94077.66;4987264;28;20030;-77
2022/07/21 08:45:40;;;;;;;2.85;1.70;;;;;;;24.75;34.20;94060.94;4987011;28;20037;-76
2022/07/21 08:48:07;;;;;;;3.45;1.67;;;;;;;24.79;33.89;94055.50;4985693;28;20430;-76
2022/07/21 08:50:38;;;;;;;2.90;1.70;;;;;;;25.09;34.25;94063.06;4970943;28;20044;-76
2022/07/21 08:53:04;;;;;;;2.90;1.70;;;;;;;25.01;33.11;94061.59;4988228;28;20156;-76
2022/07/21 08:55:31;;;;;;;2.28;1.73;;;;;;;24.87;32.61;94072.56;4981472;28;20458;-76
2022/07/21 08:57:57;;;;;;;2.47;1.90;;;;;;;25.26;34.06;94073.06;4983679;28;20022;-76
2022/07/21 09:00:22;;;;;;;2.15;1.80;;;;;;;25.03;33.69;94045.66;4981915;28;20509;-75
2022/07/21 09:02:47;;;;;;;2.67;1.73;;;;;;;24.77;33.79;94034.16;4984243;28;20124;-76
2022/07/21 09:05:13;;;;;;;2.35;2.13;;;;;;;24.97;33.97;94058.13;4987437;28;20526;-76
2022/07/21 09:07:54;;;;;;;6.45;1.83;;;;;;;25.04;34.05;94053.38;4987784;28;20737;-76
2022/07/21 09:10:24;;;;;;;4.50;1.80;;;;;;;25.14;33.54;94059.94;4986093;28;20593;-77
2022/07/21 09:12:59;;;;;;;2.28;1.90;;;;;;;25.25;34.07;94063.34;4983930;28;20033;-76
2022/07/21 09:15:26;;;;;;;3.08;2.15;;;;;;;25.43;33.81;94055.84;4986819;28;20121;-75
2022/07/21 09:18:03;;;;;;;2.83;2.35;;;;;;;25.34;32.27;94063.69;4989533;28;20494;-76
2022/07/21 09:20:29;;;;;;;4.97;2.15;;;;;;;25.17;32.76;94031.94;5004001;28;20045;-75
2022/07/21 09:23:11;;;;;;;5.35;2.00;;;;;;;25.52;32.19;94055.38;4971752;28;20505;-76
2022/07/21 09:25:47;;;;;;;2.38;2.17;;;;;;;25.59;32.44;94056.09;4983271;28;20560;-76
2022/07/21 09:28:14;;;;;;;11.35;3.08;;;;;;;25.50;32.27;94034.00;4990769;28;20740;-76
2022/07/21 09:31:00;;;;;;;3.42;2.28;;;;;;;25.59;31.31;94052.59;4985976;28;20049;-75
2022/07/21 09:33:45;;;;;;;2.78;1.58;;;;;;;25.48;32.23;94025.47;4988798;28;20033;-76
2022/07/21 09:36:14;;;;;;;4.47;2.05;;;;;;;25.61;32.24;94042.09;4981131;28;20073;-76
2022/07/21 09:38:44;;;;;;;2.70;1.80;;;;;;;25.58;31.55;94040.16;4976451;28;20034;-72
2022/07/21 09:41:16;;;;;;;2.28;2.00;;;;;;;25.66;32.26;94041.66;4984767;28;20454;-76
2022/07/21 09:43:47;;;;;;;2.97;1.98;;;;;;;25.76;32.00;94045.47;5000404;28;20589;-76
2022/07/21 09:46:16;;;;;;;2.60;1.98;;;;;;;25.56;31.88;94040.59;4979387;28;20255;-76
2022/07/21 09:48:45;;;;;;;2.15;1.88;;;;;;;25.78;32.18;94032.19;4981545;28;20526;-76
2022/07/21 09:51:25;;;;;;;2.35;1.70;;;;;;;25.85;30.88;94048.47;4983022;28;20314;-76
2022/07/21 09:54:01;;;;;;;2.17;1.98;;;;;;;25.85;31.05;94049.25;4980453;28;20092;-76
2022/07/21 09:56:32;;;;;;;2.22;1.65;;;;;;;25.47;31.38;94001.38;4982832;28;20034;-76
2022/07/21 09:58:59;;;;;;;3.90;2.28;;;;;;;25.84;31.10;94050.41;4984739;28;20451;-76
2022/07/21 10:01:26;;;;;;;2.20;2.00;;;;;;;25.73;30.44;94047.03;4987920;28;20025;-76
2022/07/21 10:03:53;;;;;;;2.55;1.83;;;;;;;25.96;31.64;94035.53;4992069;28;20314;-75
2022/07/21 10:06:23;;;;;;;2.05;1.83;;;;;;;25.94;31.23;94008.69;4992614;28;20112;-76
2022/07/21 10:08:49;;;;;;;2.38;1.83;;;;;;;26.26;31.35;94019.22;4990818;28;20552;-73
2022/07/21 10:11:15;;;;;;;4.55;2.08;;;;;;;26.23;31.96;94006.41;4988971;28;20030;-76
2022/07/21 10:13:41;;;;;;;2.58;1.63;;;;;;;26.17;31.41;94027.13;4994872;28;20057;-73
2022/07/21 10:16:11;;;;;;;2.63;1.60;;;;;;;26.21;31.59;94011.50;4991245;28;20578;-76
2022/07/21 10:18:49;;;;;;;2.20;1.77;;;;;;;26.31;31.66;94029.69;4986731;28;20097;-73
2022/07/21 10:21:35;;;;;;;1.85;1.48;;;;;;;26.51;31.19;94025.16;4987890;28;20390;-76
2022/07/21 10:24:01;;;;;;;2.33;1.48;;;;;;;26.56;31.13;94018.47;4995715;28;20037;-74
2022/07/21 10:26:26;;;;;;;2.72;1.77;;;;;;;26.49;30.72;94013.91;4989483;28;20034;-74
2022/07/21 10:28:52;;;;;;;4.45;1.85;;;;;;;26.32;29.96;94027.72;4989382;28;20256;-74
2022/07/21 10:31:22;;;;;;;4.05;1.80;;;;;;;26.46;31.12;94017.44;4987163;28;20394;-74
2022/07/21 10:33:48;;;;;;;1.85;1.60;;;;;;;26.61;31.28;94018.03;4989502;28;20018;-74
2022/07/21 10:36:26;;;;;;;5.32;1.70;;;;;;;26.60;30.18;94021.16;5002983;28;20037;-75
2022/07/21 10:39:17;;;;;;;4.50;2.30;;;;;;;26.53;30.60;94005.69;4989480;28;20034;-74
2022/07/21 10:41:54;;;;;;;4.00;1.70;;;;;;;26.46;29.50;93987.44;4988207;28;20113;-75
2022/07/21 10:44:28;;;;;;;1.90;1.52;;;;;;;26.72;29.77;94005.03;5003488;28;20076;-74
2022/07/21 10:47:07;;;;;;;;;;;;;;;26.70;28.85;94009.31;4990418;28;20064;-75
2022/07/21 10:49:56;;;;;;;3.28;1.65;;;;;;;26.86;28.94;94002.09;4991695;28;19994;-76
2022/07/21 10:52:34;;;;;;;2.28;1.50;;;;;;;26.84;28.59;94009.91;4995598;28;20342;-74
2022/07/21 10:55:26;;;;;;;2.28;1.50;;;;;;;26.72;29.25;93987.88;4991513;28;20110;-75
2022/07/21 10:58:12;;;;;;;1.63;1.52;;;;;;;26.77;28.95;94001.06;4986701;28;20065;-74
2022/07/21 11:00:38;;;;;;;2.35;1.70;;;;;;;26.69;28.42;93991.44;4988037;28;20034;-74
2022/07/21 11:03:14;;;;;;;4.55;1.70;;;;;;;26.66;28.73;93986.78;4988524;28;20036;-74
2022/07/21 11:06:13;;;;;;;2.00;1.33;;;;;;;26.30;28.28;93931.97;4988138;28;20038;-74
2022/07/21 11:08:40;;;;;;;3.42;1.40;;;;;;;26.62;27.89;93977.88;4987614;28;20046;-74
2022/07/21 11:11:27;;;;;;;3.95;1.73;;;;;;;26.66;28.36;93975.88;4988158;28;20056;-74
2022/07/21 11:14:08;;;;;;;3.60;1.75;;;;;;;26.64;28.57;93978.25;4988265;28;20620;-75
2022/07/21 11:16:56;;;;;;;2.20;1.70;;;;;;;26.65;27.92;93979.78;4990404;28;20690;-73
2022/07/21 11:19:40;;;;;;;3.35;1.60;;;;;;;26.73;28.40;93981.25;4988468;28;20439;-75
2022/07/21 11:22:15;;;;;;;3.17;1.70;;;;;;;26.72;28.11;93972.28;4989063;28;20448;-74
2022/07/21 11:24:44;;;;;;;2.15;1.90;;;;;;;26.89;30.28;93970.47;4986618;28;20072;-73
2022/07/21 11:27:12;;;;;;;2.00;1.50;;;;;;;26.97;29.65;93963.72;4986462;28;20025;-74
2022/07/21 11:29:44;;;;;;;2.30;1.90;;;;;;;27.08;29.68;93980.75;4989914;28;20026;-75
2022/07/21 11:32:11;;;;;;;6.63;1.98;;;;;;;27.02;28.73;93976.94;4985175;28;20435;-74
2022/07/21 11:34:47;;;;;;;1.92;1.73;;;;;;;27.10;28.45;93978.34;4981612;28;20035;-74
2022/07/21 11:37:15;;;;;;;2.10;1.80;;;;;;;27.19;31.20;93948.56;4984133;28;20032;-75
2022/07/21 11:39:41;;;;;;;7.13;2.35;;;;;;;27.09;29.86;93968.63;4983177;28;20083;-74